sensor_id;sensor_type;location;lat;lon;timestamp;temperature;humidity
843;DHT22;407;48.884;9.126;2022-11-30T00:00:19;7.90;1.00
843;DHT22;407;48.884;9.126;2022-11-30T00:02:45;7.90;1.00
843;DHT22;407;48.884;9.126;2022-11-30T00:05:11;8.60;1.00
843;DHT22;407;48.884;9.126;2022-11-30T00:07:38;7.90;1.00
843;DHT22;407;48.884;9.126;2022-11-30T00:10:04;7.80;1.00
843;DHT22;407;48.884;9.126;2022-11-30T00:12:30;7.80;1.00
843;DHT22;407;48.884;9.126;2022-11-30T00:14:56;7.90;1.00
843;DHT22;407;48.884;9.126;2022-11-30T00:17:21;7.80;1.00
843;DHT22;407;48.884;9.126;2022-11-30T00:19:47;7.90;1.00
843;DHT22;407;48.884;9.126;2022-11-30T00:22:12;7.80;1.00
843;DHT22;407;48.884;9.126;2022-11-30T00:24:38;7.70;1.00
843;DHT22;407;48.884;9.126;2022-11-30T00:27:04;7.80;1.00
843;DHT22;407;48.884;9.126;2022-11-30T00:29:29;7.80;1.00
843;DHT22;407;48.884;9.126;2022-11-30T00:31:55;7.80;1.00
843;DHT22;407;48.884;9.126;2022-11-30T00:34:20;7.70;1.00
843;DHT22;407;48.884;9.126;2022-11-30T00:36:46;7.70;1.00
843;DHT22;407;48.884;9.126;2022-11-30T00:39:12;7.70;1.00
843;DHT22;407;48.884;9.126;2022-11-30T00:41:37;7.60;1.00
843;DHT22;407;48.884;9.126;2022-11-30T00:44:03;7.60;1.00
843;DHT22;407;48.884;9.126;2022-11-30T00:46:29;7.60;1.00
843;DHT22;407;48.884;9.126;2022-11-30T00:48:54;7.70;1.00
843;DHT22;407;48.884;9.126;2022-11-30T00:51:20;7.70;1.00
843;DHT22;407;48.884;9.126;2022-11-30T00:53:45;7.70;1.00
843;DHT22;407;48.884;9.126;2022-11-30T00:56:14;9.00;1.00
843;DHT22;407;48.884;9.126;2022-11-30T00:58:40;7.70;1.00
843;DHT22;407;48.884;9.126;2022-11-30T01:01:06;7.80;1.00
843;DHT22;407;48.884;9.126;2022-11-30T01:03:32;7.80;1.00
843;DHT22;407;48.884;9.126;2022-11-30T01:06:06;7.80;1.00
843;DHT22;407;48.884;9.126;2022-11-30T01:08:33;7.70;1.00
843;DHT22;407;48.884;9.126;2022-11-30T01:11:12;7.70;1.00
843;DHT22;407;48.884;9.126;2022-11-30T01:13:39;7.70;1.00
843;DHT22;407;48.884;9.126;2022-11-30T01:16:17;7.70;1.00
843;DHT22;407;48.884;9.126;2022-11-30T01:18:44;7.60;1.00
843;DHT22;407;48.884;9.126;2022-11-30T01:21:13;9.10;1.00
843;DHT22;407;48.884;9.126;2022-11-30T01:23:39;7.70;1.00
843;DHT22;407;48.884;9.126;2022-11-30T01:26:05;7.70;1.00
843;DHT22;407;48.884;9.126;2022-11-30T01:28:31;7.70;1.00
843;DHT22;407;48.884;9.126;2022-11-30T01:30:58;7.70;1.00
843;DHT22;407;48.884;9.126;2022-11-30T01:33:24;8.10;1.00
843;DHT22;407;48.884;9.126;2022-11-30T01:36:01;8.30;1.00
843;DHT22;407;48.884;9.126;2022-11-30T01:38:31;8.00;1.00
843;DHT22;407;48.884;9.126;2022-11-30T01:40:57;7.60;1.00
843;DHT22;407;48.884;9.126;2022-11-30T01:43:46;9.10;1.00
843;DHT22;407;48.884;9.126;2022-11-30T01:49:14;7.70;1.00
843;DHT22;407;48.884;9.126;2022-11-30T01:51:49;7.70;1.00
843;DHT22;407;48.884;9.126;2022-11-30T01:54:21;7.60;1.00
843;DHT22;407;48.884;9.126;2022-11-30T01:56:52;8.70;1.00
843;DHT22;407;48.884;9.126;2022-11-30T01:59:20;7.70;1.00
843;DHT22;407;48.884;9.126;2022-11-30T02:01:47;8.80;1.00
843;DHT22;407;48.884;9.126;2022-11-30T02:04:31;7.70;1.00
843;DHT22;407;48.884;9.126;2022-11-30T02:06:58;7.70;1.00
843;DHT22;407;48.884;9.126;2022-11-30T02:09:25;7.70;1.00
843;DHT22;407;48.884;9.126;2022-11-30T02:11:51;9.20;1.00
843;DHT22;407;48.884;9.126;2022-11-30T02:25:46;7.60;1.00
843;DHT22;407;48.884;9.126;2022-11-30T02:31:02;7.60;1.00
843;DHT22;407;48.884;9.126;2022-11-30T02:33:31;7.60;1.00
843;DHT22;407;48.884;9.126;2022-11-30T02:35:58;7.50;1.00
843;DHT22;407;48.884;9.126;2022-11-30T02:38:26;9.00;1.00
843;DHT22;407;48.884;9.126;2022-11-30T02:40:52;7.60;1.00
843;DHT22;407;48.884;9.126;2022-11-30T02:43:20;7.60;1.00
843;DHT22;407;48.884;9.126;2022-11-30T02:49:09;7.70;1.00
843;DHT22;407;48.884;9.126;2022-11-30T02:51:37;8.10;1.00
843;DHT22;407;48.884;9.126;2022-11-30T02:54:03;7.60;1.00
843;DHT22;407;48.884;9.126;2022-11-30T02:56:29;7.70;1.00
843;DHT22;407;48.884;9.126;2022-11-30T02:58:55;7.80;1.00
843;DHT22;407;48.884;9.126;2022-11-30T03:01:21;7.90;1.00
843;DHT22;407;48.884;9.126;2022-11-30T03:03:47;7.80;1.00
843;DHT22;407;48.884;9.126;2022-11-30T03:06:12;7.80;1.00
843;DHT22;407;48.884;9.126;2022-11-30T03:08:38;8.20;1.00
843;DHT22;407;48.884;9.126;2022-11-30T03:11:04;9.40;1.00
843;DHT22;407;48.884;9.126;2022-11-30T03:13:31;7.80;1.00
843;DHT22;407;48.884;9.126;2022-11-30T03:15:57;7.80;1.00
843;DHT22;407;48.884;9.126;2022-11-30T03:18:22;7.80;1.00
843;DHT22;407;48.884;9.126;2022-11-30T03:20:48;7.80;1.00
843;DHT22;407;48.884;9.126;2022-11-30T03:23:13;7.80;1.00
843;DHT22;407;48.884;9.126;2022-11-30T03:25:39;7.80;1.00
843;DHT22;407;48.884;9.126;2022-11-30T03:28:05;7.80;1.00
843;DHT22;407;48.884;9.126;2022-11-30T03:30:30;7.70;1.00
843;DHT22;407;48.884;9.126;2022-11-30T03:32:56;7.70;1.00
843;DHT22;407;48.884;9.126;2022-11-30T03:35:21;7.50;1.00
843;DHT22;407;48.884;9.126;2022-11-30T03:37:47;7.90;1.00
843;DHT22;407;48.884;9.126;2022-11-30T03:40:13;7.60;1.00
843;DHT22;407;48.884;9.126;2022-11-30T03:42:38;7.60;1.00
843;DHT22;407;48.884;9.126;2022-11-30T03:45:04;7.70;1.00
843;DHT22;407;48.884;9.126;2022-11-30T03:47:30;7.70;1.00
843;DHT22;407;48.884;9.126;2022-11-30T03:49:56;7.80;1.00
843;DHT22;407;48.884;9.126;2022-11-30T03:52:21;8.00;1.00
843;DHT22;407;48.884;9.126;2022-11-30T03:54:47;7.70;1.00
843;DHT22;407;48.884;9.126;2022-11-30T03:57:12;7.60;1.00
843;DHT22;407;48.884;9.126;2022-11-30T03:59:38;7.60;1.00
843;DHT22;407;48.884;9.126;2022-11-30T04:02:04;7.60;1.00
843;DHT22;407;48.884;9.126;2022-11-30T04:04:29;7.70;1.00
843;DHT22;407;48.884;9.126;2022-11-30T04:06:55;7.70;1.00
843;DHT22;407;48.884;9.126;2022-11-30T04:09:20;7.60;1.00
843;DHT22;407;48.884;9.126;2022-11-30T04:11:46;7.60;1.00
843;DHT22;407;48.884;9.126;2022-11-30T04:14:11;7.70;1.00
843;DHT22;407;48.884;9.126;2022-11-30T04:16:37;7.70;1.00
843;DHT22;407;48.884;9.126;2022-11-30T04:19:03;7.80;1.00
843;DHT22;407;48.884;9.126;2022-11-30T04:21:29;8.20;1.00
843;DHT22;407;48.884;9.126;2022-11-30T04:23:54;7.70;1.00
843;DHT22;407;48.884;9.126;2022-11-30T04:26:20;7.60;1.00
843;DHT22;407;48.884;9.126;2022-11-30T04:28:45;8.60;1.00
843;DHT22;407;48.884;9.126;2022-11-30T04:31:11;7.60;1.00
843;DHT22;407;48.884;9.126;2022-11-30T04:33:37;7.60;1.00
843;DHT22;407;48.884;9.126;2022-11-30T04:36:04;7.90;1.00
843;DHT22;407;48.884;9.126;2022-11-30T04:38:31;7.70;1.00
843;DHT22;407;48.884;9.126;2022-11-30T04:40:57;7.70;1.00
843;DHT22;407;48.884;9.126;2022-11-30T04:43:24;7.80;1.00
843;DHT22;407;48.884;9.126;2022-11-30T04:45:49;7.40;1.00
843;DHT22;407;48.884;9.126;2022-11-30T04:48:16;7.80;1.00
843;DHT22;407;48.884;9.126;2022-11-30T04:50:42;7.70;1.00
843;DHT22;407;48.884;9.126;2022-11-30T04:53:08;7.80;1.00
843;DHT22;407;48.884;9.126;2022-11-30T04:55:36;7.80;1.00
843;DHT22;407;48.884;9.126;2022-11-30T04:58:03;8.00;1.00
843;DHT22;407;48.884;9.126;2022-11-30T05:00:29;7.60;1.00
843;DHT22;407;48.884;9.126;2022-11-30T05:02:55;7.60;1.00
843;DHT22;407;48.884;9.126;2022-11-30T05:05:21;7.70;1.00
843;DHT22;407;48.884;9.126;2022-11-30T05:07:53;7.70;1.00
843;DHT22;407;48.884;9.126;2022-11-30T05:10:20;7.80;1.00
843;DHT22;407;48.884;9.126;2022-11-30T05:12:46;7.70;1.00
843;DHT22;407;48.884;9.126;2022-11-30T05:15:11;8.60;1.00
843;DHT22;407;48.884;9.126;2022-11-30T05:17:37;7.70;1.00
843;DHT22;407;48.884;9.126;2022-11-30T05:20:03;7.70;1.00
843;DHT22;407;48.884;9.126;2022-11-30T05:22:29;7.60;1.00
843;DHT22;407;48.884;9.126;2022-11-30T05:24:55;8.30;1.00
843;DHT22;407;48.884;9.126;2022-11-30T05:27:20;7.60;1.00
843;DHT22;407;48.884;9.126;2022-11-30T05:29:46;7.60;1.00
843;DHT22;407;48.884;9.126;2022-11-30T05:32:12;7.70;1.00
843;DHT22;407;48.884;9.126;2022-11-30T05:34:37;7.60;1.00
843;DHT22;407;48.884;9.126;2022-11-30T05:37:03;7.50;1.00
843;DHT22;407;48.884;9.126;2022-11-30T05:39:28;7.50;1.00
843;DHT22;407;48.884;9.126;2022-11-30T05:41:54;8.40;1.00
843;DHT22;407;48.884;9.126;2022-11-30T05:44:20;7.40;1.00
843;DHT22;407;48.884;9.126;2022-11-30T05:46:46;7.50;1.00
843;DHT22;407;48.884;9.126;2022-11-30T05:49:11;7.40;1.00
843;DHT22;407;48.884;9.126;2022-11-30T05:51:39;8.70;1.00
843;DHT22;407;48.884;9.126;2022-11-30T05:54:04;7.30;1.00
843;DHT22;407;48.884;9.126;2022-11-30T05:56:30;7.40;1.00
843;DHT22;407;48.884;9.126;2022-11-30T05:58:56;7.40;1.00
843;DHT22;407;48.884;9.126;2022-11-30T06:01:24;8.80;1.00
843;DHT22;407;48.884;9.126;2022-11-30T06:03:50;7.40;1.00
843;DHT22;407;48.884;9.126;2022-11-30T06:06:17;7.30;1.00
843;DHT22;407;48.884;9.126;2022-11-30T06:08:43;7.40;1.00
843;DHT22;407;48.884;9.126;2022-11-30T06:11:09;7.40;1.00
843;DHT22;407;48.884;9.126;2022-11-30T06:13:35;7.50;1.00
843;DHT22;407;48.884;9.126;2022-11-30T06:16:02;8.40;1.00
843;DHT22;407;48.884;9.126;2022-11-30T06:18:28;7.40;1.00
843;DHT22;407;48.884;9.126;2022-11-30T06:20:54;7.50;1.00
843;DHT22;407;48.884;9.126;2022-11-30T06:23:23;7.50;1.00
843;DHT22;407;48.884;9.126;2022-11-30T06:25:48;7.50;1.00
843;DHT22;407;48.884;9.126;2022-11-30T06:28:14;7.50;1.00
843;DHT22;407;48.884;9.126;2022-11-30T06:30:40;7.40;1.00
843;DHT22;407;48.884;9.126;2022-11-30T06:33:05;7.40;1.00
843;DHT22;407;48.884;9.126;2022-11-30T06:35:31;7.50;1.00
843;DHT22;407;48.884;9.126;2022-11-30T06:37:57;7.50;1.00
843;DHT22;407;48.884;9.126;2022-11-30T06:40:24;8.80;1.00
843;DHT22;407;48.884;9.126;2022-11-30T06:42:50;7.50;1.00
843;DHT22;407;48.884;9.126;2022-11-30T06:45:16;7.50;1.00
843;DHT22;407;48.884;9.126;2022-11-30T06:47:41;8.30;1.00
843;DHT22;407;48.884;9.126;2022-11-30T06:50:07;8.80;1.00
843;DHT22;407;48.884;9.126;2022-11-30T06:52:34;7.60;1.00
843;DHT22;407;48.884;9.126;2022-11-30T06:54:59;7.60;1.00
843;DHT22;407;48.884;9.126;2022-11-30T06:57:26;7.70;1.00
843;DHT22;407;48.884;9.126;2022-11-30T06:59:52;7.70;1.00
843;DHT22;407;48.884;9.126;2022-11-30T07:02:18;7.80;1.00
843;DHT22;407;48.884;9.126;2022-11-30T07:04:43;7.80;1.00
843;DHT22;407;48.884;9.126;2022-11-30T07:07:09;7.80;1.00
843;DHT22;407;48.884;9.126;2022-11-30T07:09:35;7.70;1.00
843;DHT22;407;48.884;9.126;2022-11-30T07:12:03;7.80;1.00
843;DHT22;407;48.884;9.126;2022-11-30T07:14:29;9.20;1.00
843;DHT22;407;48.884;9.126;2022-11-30T07:16:55;8.90;1.00
843;DHT22;407;48.884;9.126;2022-11-30T07:19:22;7.90;1.00
843;DHT22;407;48.884;9.126;2022-11-30T07:21:48;7.90;1.00
843;DHT22;407;48.884;9.126;2022-11-30T07:24:13;7.90;1.00
843;DHT22;407;48.884;9.126;2022-11-30T07:26:59;7.90;1.00
843;DHT22;407;48.884;9.126;2022-11-30T07:29:25;7.90;1.00
843;DHT22;407;48.884;9.126;2022-11-30T07:31:51;8.00;1.00
843;DHT22;407;48.884;9.126;2022-11-30T07:34:18;8.00;1.00
843;DHT22;407;48.884;9.126;2022-11-30T07:36:44;6.70;1.00
843;DHT22;407;48.884;9.126;2022-11-30T07:39:10;8.00;1.00
843;DHT22;407;48.884;9.126;2022-11-30T07:41:36;8.00;1.00
843;DHT22;407;48.884;9.126;2022-11-30T07:44:06;8.20;1.00
843;DHT22;407;48.884;9.126;2022-11-30T07:46:33;8.20;99.90
843;DHT22;407;48.884;9.126;2022-11-30T07:49:00;8.30;99.90
843;DHT22;407;48.884;9.126;2022-11-30T07:51:26;9.40;99.90
843;DHT22;407;48.884;9.126;2022-11-30T07:53:54;8.30;99.90
843;DHT22;407;48.884;9.126;2022-11-30T07:56:20;8.30;99.90
843;DHT22;407;48.884;9.126;2022-11-30T07:58:48;8.20;99.90
843;DHT22;407;48.884;9.126;2022-11-30T08:01:16;8.10;99.90
843;DHT22;407;48.884;9.126;2022-11-30T08:03:42;8.00;99.90
843;DHT22;407;48.884;9.126;2022-11-30T08:06:13;8.20;99.90
843;DHT22;407;48.884;9.126;2022-11-30T08:08:41;8.20;99.90
843;DHT22;407;48.884;9.126;2022-11-30T08:11:10;9.00;99.90
843;DHT22;407;48.884;9.126;2022-11-30T08:13:36;8.20;99.90
843;DHT22;407;48.884;9.126;2022-11-30T08:16:10;8.70;99.90
843;DHT22;407;48.884;9.126;2022-11-30T08:18:36;8.40;99.90
843;DHT22;407;48.884;9.126;2022-11-30T08:21:04;8.40;99.90
843;DHT22;407;48.884;9.126;2022-11-30T08:23:32;8.50;99.90
843;DHT22;407;48.884;9.126;2022-11-30T08:26:10;8.50;99.90
843;DHT22;407;48.884;9.126;2022-11-30T08:28:36;8.50;99.90
843;DHT22;407;48.884;9.126;2022-11-30T08:31:03;8.90;99.90
843;DHT22;407;48.884;9.126;2022-11-30T08:33:30;8.60;99.90
843;DHT22;407;48.884;9.126;2022-11-30T08:36:17;8.60;86.90
843;DHT22;407;48.884;9.126;2022-11-30T08:38:44;8.60;1.00
843;DHT22;407;48.884;9.126;2022-11-30T08:41:12;8.70;1.00
843;DHT22;407;48.884;9.126;2022-11-30T08:43:38;8.80;1.00
843;DHT22;407;48.884;9.126;2022-11-30T08:46:05;8.90;99.90
843;DHT22;407;48.884;9.126;2022-11-30T08:48:32;9.00;99.90
843;DHT22;407;48.884;9.126;2022-11-30T08:51:04;9.00;20.60
843;DHT22;407;48.884;9.126;2022-11-30T08:53:30;9.00;99.90
843;DHT22;407;48.884;9.126;2022-11-30T08:56:01;9.00;1.00
843;DHT22;407;48.884;9.126;2022-11-30T08:58:29;9.00;99.90
843;DHT22;407;48.884;9.126;2022-11-30T09:01:05;9.00;1.00
843;DHT22;407;48.884;9.126;2022-11-30T09:03:30;9.00;1.00
843;DHT22;407;48.884;9.126;2022-11-30T09:06:05;9.30;1.00
843;DHT22;407;48.884;9.126;2022-11-30T09:08:31;9.00;99.90
843;DHT22;407;48.884;9.126;2022-11-30T09:10:56;9.10;1.00
843;DHT22;407;48.884;9.126;2022-11-30T09:13:22;9.10;99.90
843;DHT22;407;48.884;9.126;2022-11-30T09:15:54;9.00;1.00
843;DHT22;407;48.884;9.126;2022-11-30T09:18:20;8.90;1.00
843;DHT22;407;48.884;9.126;2022-11-30T09:20:46;8.80;99.90
843;DHT22;407;48.884;9.126;2022-11-30T09:23:11;8.80;99.90
843;DHT22;407;48.884;9.126;2022-11-30T09:25:37;8.80;99.90
843;DHT22;407;48.884;9.126;2022-11-30T09:28:02;8.80;99.90
843;DHT22;407;48.884;9.126;2022-11-30T09:30:28;8.80;1.00
843;DHT22;407;48.884;9.126;2022-11-30T09:32:54;8.90;1.00
843;DHT22;407;48.884;9.126;2022-11-30T09:35:19;9.10;1.00
843;DHT22;407;48.884;9.126;2022-11-30T09:37:45;9.00;99.90
843;DHT22;407;48.884;9.126;2022-11-30T09:40:12;9.10;1.00
843;DHT22;407;48.884;9.126;2022-11-30T09:42:44;9.10;1.00
843;DHT22;407;48.884;9.126;2022-11-30T09:45:27;9.30;1.00
843;DHT22;407;48.884;9.126;2022-11-30T09:50:43;9.60;1.00
843;DHT22;407;48.884;9.126;2022-11-30T09:53:26;9.60;99.90
843;DHT22;407;48.884;9.126;2022-11-30T09:55:53;9.50;1.00
843;DHT22;407;48.884;9.126;2022-11-30T09:58:33;9.70;22.40
843;DHT22;407;48.884;9.126;2022-11-30T10:01:04;9.60;1.00
843;DHT22;407;48.884;9.126;2022-11-30T10:03:33;9.50;1.00
843;DHT22;407;48.884;9.126;2022-11-30T10:06:05;9.30;99.90
843;DHT22;407;48.884;9.126;2022-11-30T10:11:40;9.30;99.90
843;DHT22;407;48.884;9.126;2022-11-30T10:27:54;8.90;1.00
843;DHT22;407;48.884;9.126;2022-11-30T10:30:30;9.10;99.90
843;DHT22;407;48.884;9.126;2022-11-30T10:33:03;9.30;99.90
843;DHT22;407;48.884;9.126;2022-11-30T10:35:38;9.40;1.00
843;DHT22;407;48.884;9.126;2022-11-30T10:38:16;9.30;1.00
843;DHT22;407;48.884;9.126;2022-11-30T10:41:00;9.20;1.00
843;DHT22;407;48.884;9.126;2022-11-30T10:43:32;9.10;1.00
843;DHT22;407;48.884;9.126;2022-11-30T10:46:02;9.20;1.00
843;DHT22;407;48.884;9.126;2022-11-30T10:48:33;9.20;1.00
843;DHT22;407;48.884;9.126;2022-11-30T10:51:01;9.20;1.00
843;DHT22;407;48.884;9.126;2022-11-30T10:53:29;9.20;1.00
843;DHT22;407;48.884;9.126;2022-11-30T10:56:02;9.30;1.00
843;DHT22;407;48.884;9.126;2022-11-30T10:58:53;9.40;1.00
843;DHT22;407;48.884;9.126;2022-11-30T11:01:37;9.50;1.00
843;DHT22;407;48.884;9.126;2022-11-30T11:04:16;9.30;99.90
843;DHT22;407;48.884;9.126;2022-11-30T11:09:35;9.30;10.60
843;DHT22;407;48.884;9.126;2022-11-30T11:12:02;9.20;1.00
843;DHT22;407;48.884;9.126;2022-11-30T11:14:29;9.10;1.00
843;DHT22;407;48.884;9.126;2022-11-30T11:17:01;9.00;1.00
843;DHT22;407;48.884;9.126;2022-11-30T11:19:41;9.20;1.00
843;DHT22;407;48.884;9.126;2022-11-30T11:22:22;9.00;1.00
843;DHT22;407;48.884;9.126;2022-11-30T11:24:49;8.90;1.00
843;DHT22;407;48.884;9.126;2022-11-30T11:27:26;8.90;1.00
843;DHT22;407;48.884;9.126;2022-11-30T11:30:06;8.90;1.00
843;DHT22;407;48.884;9.126;2022-11-30T11:32:33;8.90;1.00
843;DHT22;407;48.884;9.126;2022-11-30T11:34:59;8.90;1.00
843;DHT22;407;48.884;9.126;2022-11-30T11:37:30;8.90;1.00
843;DHT22;407;48.884;9.126;2022-11-30T11:42:52;8.90;1.00
843;DHT22;407;48.884;9.126;2022-11-30T11:45:27;8.80;1.00
843;DHT22;407;48.884;9.126;2022-11-30T11:48:02;8.90;1.00
843;DHT22;407;48.884;9.126;2022-11-30T11:50:36;8.90;1.00
843;DHT22;407;48.884;9.126;2022-11-30T11:53:33;8.90;1.00
843;DHT22;407;48.884;9.126;2022-11-30T11:56:28;9.00;1.00
843;DHT22;407;48.884;9.126;2022-11-30T11:59:04;8.90;1.00
843;DHT22;407;48.884;9.126;2022-11-30T12:04:52;9.00;1.00
843;DHT22;407;48.884;9.126;2022-11-30T12:12:44;9.10;1.00
843;DHT22;407;48.884;9.126;2022-11-30T12:15:10;9.00;1.00
843;DHT22;407;48.884;9.126;2022-11-30T12:20:16;9.10;1.00
843;DHT22;407;48.884;9.126;2022-11-30T12:25:48;9.20;1.00
843;DHT22;407;48.884;9.126;2022-11-30T12:28:30;9.30;1.00
843;DHT22;407;48.884;9.126;2022-11-30T12:31:13;9.30;1.00
843;DHT22;407;48.884;9.126;2022-11-30T12:34:10;9.40;1.00
843;DHT22;407;48.884;9.126;2022-11-30T12:37:06;9.40;1.00
843;DHT22;407;48.884;9.126;2022-11-30T12:42:30;9.30;1.00
843;DHT22;407;48.884;9.126;2022-11-30T12:48:02;9.30;1.00
843;DHT22;407;48.884;9.126;2022-11-30T12:53:43;9.00;1.00
843;DHT22;407;48.884;9.126;2022-11-30T12:56:29;9.10;1.00
843;DHT22;407;48.884;9.126;2022-11-30T12:59:17;9.20;1.00
843;DHT22;407;48.884;9.126;2022-11-30T13:04:41;9.20;1.00
843;DHT22;407;48.884;9.126;2022-11-30T13:07:24;9.20;1.00
843;DHT22;407;48.884;9.126;2022-11-30T13:10:02;9.20;1.00
843;DHT22;407;48.884;9.126;2022-11-30T13:12:33;9.10;1.00
843;DHT22;407;48.884;9.126;2022-11-30T13:15:26;8.90;1.00
843;DHT22;407;48.884;9.126;2022-11-30T13:17:50;8.90;1.00
843;DHT22;407;48.884;9.126;2022-11-30T13:36:35;8.80;1.00
843;DHT22;407;48.884;9.126;2022-11-30T13:41:40;8.90;99.90
843;DHT22;407;48.884;9.126;2022-11-30T13:46:55;9.00;99.90
843;DHT22;407;48.884;9.126;2022-11-30T13:49:31;8.80;99.90
843;DHT22;407;48.884;9.126;2022-11-30T13:51:58;8.80;99.90
843;DHT22;407;48.884;9.126;2022-11-30T13:57:16;8.80;99.90
843;DHT22;407;48.884;9.126;2022-11-30T13:59:48;8.80;99.90
843;DHT22;407;48.884;9.126;2022-11-30T14:10:26;8.90;99.90
843;DHT22;407;48.884;9.126;2022-11-30T14:20:44;8.90;99.90
843;DHT22;407;48.884;9.126;2022-11-30T14:23:55;8.70;99.90
843;DHT22;407;48.884;9.126;2022-11-30T14:26:41;10.30;1.00
843;DHT22;407;48.884;9.126;2022-11-30T14:29:11;8.70;1.00
843;DHT22;407;48.884;9.126;2022-11-30T14:31:45;8.70;1.00
843;DHT22;407;48.884;9.126;2022-11-30T14:34:20;8.60;1.00
843;DHT22;407;48.884;9.126;2022-11-30T14:36:55;8.60;1.00
843;DHT22;407;48.884;9.126;2022-11-30T14:41:53;8.50;1.00
843;DHT22;407;48.884;9.126;2022-11-30T14:44:18;8.50;1.00
843;DHT22;407;48.884;9.126;2022-11-30T14:46:44;8.50;99.90
843;DHT22;407;48.884;9.126;2022-11-30T14:49:20;8.50;99.90
843;DHT22;407;48.884;9.126;2022-11-30T14:52:01;8.30;79.40
843;DHT22;407;48.884;9.126;2022-11-30T14:54:56;8.40;1.00
843;DHT22;407;48.884;9.126;2022-11-30T14:57:36;8.40;99.90
843;DHT22;407;48.884;9.126;2022-11-30T15:00:04;8.40;1.00
843;DHT22;407;48.884;9.126;2022-11-30T15:02:31;8.40;1.00
843;DHT22;407;48.884;9.126;2022-11-30T15:05:04;8.40;99.90
843;DHT22;407;48.884;9.126;2022-11-30T15:07:31;8.50;99.90
843;DHT22;407;48.884;9.126;2022-11-30T15:10:34;8.50;1.00
843;DHT22;407;48.884;9.126;2022-11-30T15:13:00;8.50;1.00
843;DHT22;407;48.884;9.126;2022-11-30T15:15:27;8.50;99.90
843;DHT22;407;48.884;9.126;2022-11-30T15:18:14;8.50;26.20
843;DHT22;407;48.884;9.126;2022-11-30T15:20:53;8.50;99.90
843;DHT22;407;48.884;9.126;2022-11-30T15:23:20;8.50;91.50
843;DHT22;407;48.884;9.126;2022-11-30T15:26:50;8.60;99.90
843;DHT22;407;48.884;9.126;2022-11-30T15:29:00;8.60;1.00
843;DHT22;407;48.884;9.126;2022-11-30T15:31:34;8.70;1.00
843;DHT22;407;48.884;9.126;2022-11-30T15:34:00;8.60;99.90
843;DHT22;407;48.884;9.126;2022-11-30T15:36:35;8.40;1.00
843;DHT22;407;48.884;9.126;2022-11-30T15:39:04;8.40;99.90
843;DHT22;407;48.884;9.126;2022-11-30T15:41:32;8.50;99.90
843;DHT22;407;48.884;9.126;2022-11-30T15:43:58;8.40;99.90
843;DHT22;407;48.884;9.126;2022-11-30T15:46:31;9.10;99.90
843;DHT22;407;48.884;9.126;2022-11-30T15:49:16;8.40;99.90
843;DHT22;407;48.884;9.126;2022-11-30T15:51:45;8.40;99.90
843;DHT22;407;48.884;9.126;2022-11-30T15:54:11;8.30;1.00
843;DHT22;407;48.884;9.126;2022-11-30T15:56:37;8.10;1.00
843;DHT22;407;48.884;9.126;2022-11-30T15:59:24;9.30;99.90
843;DHT22;407;48.884;9.126;2022-11-30T16:01:51;7.90;99.90
843;DHT22;407;48.884;9.126;2022-11-30T16:04:28;8.00;99.90
843;DHT22;407;48.884;9.126;2022-11-30T16:06:54;8.10;99.90
843;DHT22;407;48.884;9.126;2022-11-30T16:09:28;9.30;99.90
843;DHT22;407;48.884;9.126;2022-11-30T16:11:58;7.90;99.90
843;DHT22;407;48.884;9.126;2022-11-30T16:14:24;7.90;99.90
843;DHT22;407;48.884;9.126;2022-11-30T16:16:50;8.00;99.90
843;DHT22;407;48.884;9.126;2022-11-30T16:19:18;8.00;99.90
843;DHT22;407;48.884;9.126;2022-11-30T16:21:43;7.90;99.90
843;DHT22;407;48.884;9.126;2022-11-30T16:24:13;8.40;99.90
843;DHT22;407;48.884;9.126;2022-11-30T16:26:39;7.90;99.90
843;DHT22;407;48.884;9.126;2022-11-30T16:29:05;7.80;99.90
843;DHT22;407;48.884;9.126;2022-11-30T16:31:31;7.80;99.90
843;DHT22;407;48.884;9.126;2022-11-30T16:33:56;7.90;99.90
843;DHT22;407;48.884;9.126;2022-11-30T16:36:22;7.90;99.90
843;DHT22;407;48.884;9.126;2022-11-30T16:38:48;7.80;99.90
843;DHT22;407;48.884;9.126;2022-11-30T16:41:25;7.90;1.00
843;DHT22;407;48.884;9.126;2022-11-30T16:43:53;8.30;1.00
843;DHT22;407;48.884;9.126;2022-11-30T16:46:21;7.90;99.90
843;DHT22;407;48.884;9.126;2022-11-30T16:48:48;7.90;99.90
843;DHT22;407;48.884;9.126;2022-11-30T16:51:20;9.30;1.00
843;DHT22;407;48.884;9.126;2022-11-30T16:53:47;8.00;1.00
843;DHT22;407;48.884;9.126;2022-11-30T16:56:13;8.10;99.90
843;DHT22;407;48.884;9.126;2022-11-30T16:58:40;8.10;99.90
843;DHT22;407;48.884;9.126;2022-11-30T17:01:14;8.10;99.90
843;DHT22;407;48.884;9.126;2022-11-30T17:03:41;8.10;99.90
843;DHT22;407;48.884;9.126;2022-11-30T17:06:14;8.90;99.90
843;DHT22;407;48.884;9.126;2022-11-30T17:08:40;8.00;99.90
843;DHT22;407;48.884;9.126;2022-11-30T17:11:20;8.00;99.90
843;DHT22;407;48.884;9.126;2022-11-30T17:13:47;8.00;99.90
843;DHT22;407;48.884;9.126;2022-11-30T17:16:13;8.00;99.90
843;DHT22;407;48.884;9.126;2022-11-30T17:18:39;7.90;99.90
843;DHT22;407;48.884;9.126;2022-11-30T17:21:05;7.80;99.90
843;DHT22;407;48.884;9.126;2022-11-30T17:23:31;7.80;99.90
843;DHT22;407;48.884;9.126;2022-11-30T17:25:56;7.80;99.90
843;DHT22;407;48.884;9.126;2022-11-30T17:28:22;7.70;99.90
843;DHT22;407;48.884;9.126;2022-11-30T17:30:47;7.70;1.00
843;DHT22;407;48.884;9.126;2022-11-30T17:33:13;9.40;1.00
843;DHT22;407;48.884;9.126;2022-11-30T17:35:39;7.70;1.00
843;DHT22;407;48.884;9.126;2022-11-30T17:38:05;7.70;99.90
843;DHT22;407;48.884;9.126;2022-11-30T17:40:30;7.80;99.90
843;DHT22;407;48.884;9.126;2022-11-30T17:42:56;7.80;99.90
843;DHT22;407;48.884;9.126;2022-11-30T17:45:22;7.80;99.90
843;DHT22;407;48.884;9.126;2022-11-30T17:47:47;8.10;99.90
843;DHT22;407;48.884;9.126;2022-11-30T17:50:13;7.70;1.00
843;DHT22;407;48.884;9.126;2022-11-30T17:52:39;7.80;99.90
843;DHT22;407;48.884;9.126;2022-11-30T17:55:05;7.60;99.90
843;DHT22;407;48.884;9.126;2022-11-30T17:57:31;7.70;99.90
843;DHT22;407;48.884;9.126;2022-11-30T17:59:57;7.70;99.90
843;DHT22;407;48.884;9.126;2022-11-30T18:02:22;7.70;99.90
843;DHT22;407;48.884;9.126;2022-11-30T18:04:48;7.60;99.90
843;DHT22;407;48.884;9.126;2022-11-30T18:07:14;7.60;99.90
843;DHT22;407;48.884;9.126;2022-11-30T18:09:40;7.60;99.90
843;DHT22;407;48.884;9.126;2022-11-30T18:12:05;7.80;99.90
843;DHT22;407;48.884;9.126;2022-11-30T18:14:31;7.70;99.80
843;DHT22;407;48.884;9.126;2022-11-30T18:16:56;7.70;42.80
843;DHT22;407;48.884;9.126;2022-11-30T18:19:22;8.00;1.00
843;DHT22;407;48.884;9.126;2022-11-30T18:21:48;7.50;1.00
843;DHT22;407;48.884;9.126;2022-11-30T18:24:13;8.30;1.00
843;DHT22;407;48.884;9.126;2022-11-30T18:26:39;7.70;1.00
843;DHT22;407;48.884;9.126;2022-11-30T18:29:05;7.60;99.90
843;DHT22;407;48.884;9.126;2022-11-30T18:31:32;7.60;99.90
843;DHT22;407;48.884;9.126;2022-11-30T18:34:00;7.70;99.90
843;DHT22;407;48.884;9.126;2022-11-30T18:36:26;7.50;99.90
843;DHT22;407;48.884;9.126;2022-11-30T18:38:52;7.50;99.90
843;DHT22;407;48.884;9.126;2022-11-30T18:41:18;7.40;1.00
843;DHT22;407;48.884;9.126;2022-11-30T18:43:44;7.20;1.00
843;DHT22;407;48.884;9.126;2022-11-30T18:46:11;7.00;92.00
843;DHT22;407;48.884;9.126;2022-11-30T18:48:38;7.00;99.90
843;DHT22;407;48.884;9.126;2022-11-30T18:51:15;7.10;1.00
843;DHT22;407;48.884;9.126;2022-11-30T18:53:42;8.00;99.90
843;DHT22;407;48.884;9.126;2022-11-30T18:56:09;7.20;99.90
843;DHT22;407;48.884;9.126;2022-11-30T18:58:35;6.90;99.90
843;DHT22;407;48.884;9.126;2022-11-30T19:01:09;6.90;1.00
843;DHT22;407;48.884;9.126;2022-11-30T19:03:36;7.00;4.70
843;DHT22;407;48.884;9.126;2022-11-30T19:06:06;7.10;1.00
843;DHT22;407;48.884;9.126;2022-11-30T19:08:32;7.20;99.90
843;DHT22;407;48.884;9.126;2022-11-30T19:11:06;7.10;1.00